Time;durP1;ratioP1;P1;durP2;ratioP2;P2;SDS_P1;SDS_P2;PMS_P1;PMS_P2;Temp;Humidity;BMP_temperature;BMP_pressure;BME280_temperature;BME280_humidity;BME280_pressure;Samples;Min_cycle;Max_cycle;Signal;HPM_P1;HPM_P2
2022/03/12 00:00:18;;;;;;;28.17;9.25;;;;;;;-4.12;56.76;101756.27;1740418;82;21039;-62
2022/03/12 00:02:51;;;;;;;26.62;9.65;;;;;;;-4.16;56.83;101745.71;1740455;82;21074;-61
2022/03/12 00:05:19;;;;;;;26.05;8.70;;;;;;;-4.17;57.06;101738.63;1740407;82;21115;-60
2022/03/12 00:07:51;;;;;;;22.73;9.35;;;;;;;-4.15;57.26;101736.75;1740115;81;21055;-62
2022/03/12 00:10:21;;;;;;;24.60;9.45;;;;;;;-4.10;57.40;101735.19;1740183;82;21031;-62
2022/03/12 00:12:53;;;;;;;26.75;9.00;;;;;;;-4.09;57.55;101727.56;1740542;81;21047;-62
2022/03/12 00:15:22;;;;;;;31.60;11.85;;;;;;;-4.10;57.52;101720.94;1740188;82;21537;-62
2022/03/12 00:17:52;;;;;;;32.80;14.15;;;;;;;-4.11;57.62;101724.56;1740003;82;21051;-61
2022/03/12 00:20:22;;;;;;;25.95;9.88;;;;;;;-4.13;57.69;101716.60;1739744;81;21039;-61
2022/03/12 00:22:52;;;;;;;20.82;7.20;;;;;;;-4.19;57.74;101712.88;1740123;82;21043;-61
2022/03/12 00:25:28;;;;;;;17.05;6.08;;;;;;;-4.25;57.82;101723.39;1740098;81;21082;-62
2022/03/12 00:27:57;;;;;;;14.90;5.17;;;;;;;-4.30;58.00;101723.20;1740122;82;21075;-61
2022/03/12 00:30:27;;;;;;;26.02;7.50;;;;;;;-4.35;58.20;101712.72;1740158;82;21056;-62
2022/03/12 00:32:57;;;;;;;23.77;7.75;;;;;;;-4.40;58.31;101706.70;1740016;81;21047;-62
2022/03/12 00:35:26;;;;;;;19.95;7.25;;;;;;;-4.53;58.80;101698.37;1740331;82;21075;-62
2022/03/12 00:37:56;;;;;;;24.35;7.15;;;;;;;-4.53;58.80;101698.37;1739748;82;21090;-62
2022/03/12 00:40:25;;;;;;;17.00;6.22;;;;;;;-4.55;58.81;101692.23;1740440;82;21047;-62
2022/03/12 00:42:54;;;;;;;19.77;7.22;;;;;;;-4.56;59.04;101698.95;1739961;82;21043;-62
2022/03/12 00:45:24;;;;;;;25.02;8.15;;;;;;;-4.56;59.23;101690.93;1740148;81;21051;-62
2022/03/12 00:47:55;;;;;;;31.17;10.45;;;;;;;-4.58;59.42;101697.68;1740278;82;21138;-62
2022/03/12 00:50:24;;;;;;;33.63;12.23;;;;;;;-4.59;59.55;101692.41;1741628;82;21031;-61
2022/03/12 00:52:53;;;;;;;35.20;12.28;;;;;;;-4.58;59.64;101688.80;1742715;82;21063;-62
2022/03/12 00:55:23;;;;;;;31.12;12.35;;;;;;;-4.57;59.63;101687.39;1742256;81;21091;-63
2022/03/12 00:57:51;;;;;;;36.48;13.40;;;;;;;-4.59;59.62;101682.58;1740843;82;21035;-62
2022/03/12 01:00:23;;;;;;;41.33;14.78;;;;;;;-4.62;59.60;101685.39;1740305;82;21043;-61
2022/03/12 01:02:51;;;;;;;40.85;14.38;;;;;;;-4.64;59.64;101679.71;1740151;82;21035;-62
2022/03/12 01:05:36;;;;;;;41.77;15.48;;;;;;;-4.67;59.79;101683.86;1740368;82;21035;-62
2022/03/12 01:08:05;;;;;;;44.00;15.18;;;;;;;-4.71;60.04;101687.14;1739145;82;21095;-61
2022/03/12 01:10:36;;;;;;;48.75;16.25;;;;;;;-4.73;60.27;101682.80;1740100;82;21032;-63
2022/03/12 01:13:05;;;;;;;54.35;17.85;;;;;;;-4.71;60.38;101681.80;1740399;82;21062;-63
2022/03/12 01:15:34;;;;;;;46.92;15.30;;;;;;;-4.69;60.36;101676.38;1740254;82;21035;-62
2022/03/12 01:18:15;;;;;;;42.98;15.18;;;;;;;-4.68;60.31;101678.98;1686565;84;21447;-61
2022/03/12 01:20:43;;;;;;;45.67;15.55;;;;;;;-4.67;60.33;101679.85;1686358;85;21552;-62
2022/03/12 01:23:14;;;;;;;43.25;15.72;;;;;;;-4.71;60.43;101673.77;1686692;85;21054;-62
2022/03/12 01:25:46;;;;;;;45.38;15.35;;;;;;;-4.72;60.61;101676.52;1686717;84;21003;-63
2022/03/12 01:28:16;;;;;;;41.85;14.20;;;;;;;-4.72;60.74;101664.48;1686596;84;21046;-62
2022/03/12 01:30:45;;;;;;;41.85;15.35;;;;;;;-4.76;60.83;101671.77;1686357;85;21038;-61
2022/03/12 01:33:17;;;;;;;35.20;13.48;;;;;;;-4.81;60.97;101675.13;1686319;85;21046;-61
2022/03/12 01:35:46;;;;;;;40.30;15.43;;;;;;;-4.87;61.11;101680.27;1658264;82;21106;-62
2022/03/12 01:38:14;;;;;;;40.33;14.80;;;;;;;-4.89;61.23;101678.61;1740129;82;21020;-62
2022/03/12 01:40:44;;;;;;;50.75;16.02;;;;;;;-4.88;61.29;101676.33;1696714;82;21067;-62
2022/03/12 01:43:13;;;;;;;46.50;16.90;;;;;;;-4.86;61.36;101675.80;1740218;82;21550;-62
2022/03/12 01:45:42;;;;;;;39.45;15.25;;;;;;;-4.83;61.36;101676.53;1740111;81;21027;-61
2022/03/12 01:48:36;;;;;;;46.33;16.37;;;;;;;-4.80;61.32;101668.37;1740689;82;21059;-61
2022/03/12 01:55:30;;;;;;;51.42;18.60;;;;;;;-4.81;61.29;101672.45;1740482;82;21656;-62
2022/03/12 01:57:58;;;;;;;54.93;18.27;;;;;;;-4.88;61.17;101670.52;1740324;82;21086;-62
2022/03/12 02:00:28;;;;;;;53.55;19.07;;;;;;;-4.90;61.16;101668.38;1740387;82;21028;-64
2022/03/12 02:02:59;;;;;;;61.28;22.45;;;;;;;-4.90;61.12;101670.19;1740524;81;21023;-61
2022/03/12 02:05:29;;;;;;;65.17;21.73;;;;;;;-4.91;61.16;101668.45;1720465;82;21118;-61
2022/03/12 02:07:58;;;;;;;66.95;21.87;;;;;;;-4.91;61.16;101668.45;1681738;82;21031;-62
2022/03/12 02:10:28;;;;;;;58.80;21.37;;;;;;;-4.92;61.11;101670.25;1740372;82;21476;-62
2022/03/12 02:13:01;;;;;;;62.33;22.77;;;;;;;-4.91;61.13;101667.98;1740472;82;21074;-62
2022/03/12 02:15:32;;;;;;;62.55;21.57;;;;;;;-4.92;61.10;101668.92;1686722;84;21475;-62
2022/03/12 02:18:02;;;;;;;66.75;23.38;;;;;;;-4.92;61.12;101657.36;1686454;85;21459;-62
2022/03/12 02:20:31;;;;;;;64.05;24.45;;;;;;;-4.92;61.13;101658.70;1686649;85;21086;-61
2022/03/12 02:23:00;;;;;;;66.07;23.75;;;;;;;-4.98;61.26;101654.48;1686584;84;21034;-61
2022/03/12 02:25:32;;;;;;;65.12;23.75;;;;;;;-4.98;61.26;101654.48;1686664;85;21467;-62
2022/03/12 02:28:06;;;;;;;66.22;24.15;;;;;;;-4.97;61.24;101658.90;1686632;85;21080;-62
2022/03/12 02:30:37;;;;;;;62.30;23.32;;;;;;;-4.97;61.24;101654.89;1686510;84;20994;-61
2022/03/12 02:33:05;;;;;;;63.40;24.40;;;;;;;-4.97;61.24;101649.55;1700011;82;21047;-61
2022/03/12 02:35:36;;;;;;;72.58;24.67;;;;;;;-4.99;61.17;101647.41;1740605;82;21081;-61
2022/03/12 02:38:05;;;;;;;69.27;24.85;;;;;;;-5.00;61.23;101644.80;1740341;82;21037;-62
2022/03/12 02:40:35;;;;;;;70.60;25.52;;;;;;;-5.05;61.33;101645.01;1740726;81;20995;-62
2022/03/12 02:43:06;;;;;;;65.28;24.77;;;;;;;-5.08;61.44;101642.47;1740490;82;21055;-62
2022/03/12 02:45:35;;;;;;;63.48;25.72;;;;;;;-5.12;61.55;101643.55;1697343;82;21024;-62
2022/03/12 02:48:08;;;;;;;72.58;25.20;;;;;;;-5.16;61.63;101638.80;1740398;82;21096;-61
2022/03/12 02:50:37;;;;;;;70.70;25.48;;;;;;;-5.19;61.73;101635.39;1740357;82;21087;-61
2022/03/12 02:53:05;;;;;;;68.72;25.52;;;;;;;-5.25;61.85;101635.62;1740328;81;21031;-62
2022/03/12 02:59:39;;;;;;;68.12;25.25;;;;;;;-5.24;62.12;101618.67;1754169;81;21034;-61
2022/03/12 03:02:08;;;;;;;69.65;24.65;;;;;;;-5.26;62.13;101617.40;1754218;82;21085;-62
2022/03/12 03:04:40;;;;;;;72.00;26.25;;;;;;;-5.26;62.17;101617.87;1725295;82;21058;-62
2022/03/12 03:07:11;;;;;;;78.70;26.25;;;;;;;-5.28;62.26;101619.73;1754041;82;21022;-62
2022/03/12 03:09:41;;;;;;;69.60;26.37;;;;;;;-5.29;62.36;101611.33;1754104;82;21046;-61
2022/03/12 03:12:12;;;;;;;68.55;25.60;;;;;;;-5.30;62.38;101614.93;1754129;82;21078;-60
2022/03/12 03:14:48;;;;;;;62.43;24.70;;;;;;;-5.30;62.43;101604.25;1753861;80;21082;-61
2022/03/12 03:17:15;;;;;;;62.78;24.25;;;;;;;-5.29;62.41;101611.33;1754231;80;21077;-61
2022/03/12 03:19:45;;;;;;;73.78;25.25;;;;;;;-5.29;62.35;101607.31;1753731;82;21034;-62
2022/03/12 03:22:14;;;;;;;63.73;24.07;;;;;;;-5.28;62.36;101602.38;1753946;82;21447;-62
2022/03/12 03:24:44;;;;;;;74.42;24.87;;;;;;;-5.26;62.33;101601.84;1754150;82;21666;-61
2022/03/12 03:27:13;;;;;;;64.77;24.50;;;;;;;-5.26;62.26;101597.83;1754256;82;21485;-60
2022/03/12 03:29:42;;;;;;;62.50;25.17;;;;;;;-5.24;62.19;101590.16;1754073;82;21472;-62
2022/03/12 03:32:12;;;;;;;73.12;24.55;;;;;;;-5.20;62.11;101602.47;1754157;82;21035;-61
2022/03/12 03:34:43;;;;;;;68.00;24.98;;;;;;;-5.17;62.05;101595.66;1753880;82;21089;-62
2022/03/12 03:37:11;;;;;;;72.00;26.12;;;;;;;-5.13;61.91;101591.05;1754139;82;21085;-61
2022/03/12 03:39:41;;;;;;;74.37;25.05;;;;;;;-5.10;61.76;101590.91;1753882;82;21058;-61
2022/03/12 03:42:10;;;;;;;73.00;25.00;;;;;;;-5.07;61.72;101596.11;1753978;80;21078;-61
2022/03/12 03:44:38;;;;;;;69.60;25.37;;;;;;;-5.04;61.74;101587.95;1754200;82;21018;-61
2022/03/12 03:47:07;;;;;;;72.00;24.75;;;;;;;-5.02;61.77;101587.42;1753997;80;21062;-62
2022/03/12 03:49:37;;;;;;;69.47;25.17;;;;;;;-4.99;61.78;101585.94;1753790;81;21094;-62
2022/03/12 03:52:08;;;;;;;70.92;25.12;;;;;;;-4.98;61.78;101584.14;1753745;82;21459;-61
2022/03/12 03:54:38;;;;;;;66.50;25.12;;;;;;;-4.98;61.76;101584.14;1754145;82;21114;-61
2022/03/12 03:57:07;;;;;;;77.60;25.10;;;;;;;-4.98;61.68;101571.64;1753911;80;21114;-63
2022/03/12 03:59:37;;;;;;;68.70;24.43;;;;;;;-4.94;61.52;101583.06;1754124;82;21062;-60
2022/03/12 04:02:06;;;;;;;66.37;22.62;;;;;;;-4.91;61.48;101579.78;1753934;82;21071;-63
2022/03/12 04:04:36;;;;;;;55.15;21.62;;;;;;;-4.87;61.28;101576.50;1754155;82;21007;-61
2022/03/12 04:07:10;;;;;;;56.88;22.13;;;;;;;-4.83;61.13;101576.28;1753881;82;21106;-62
2022/03/12 04:09:40;;;;;;;65.78;26.87;;;;;;;-4.79;60.98;101574.34;1753833;82;21458;-62
2022/03/12 04:12:11;;;;;;;71.97;26.82;;;;;;;-4.77;60.81;101569.78;1754159;82;21514;-61
2022/03/12 04:14:41;;;;;;;69.20;24.63;;;;;;;-4.73;60.74;101568.70;1660144;86;21062;-62
2022/03/12 04:17:15;;;;;;;65.92;25.17;;;;;;;-4.71;60.72;101568.63;1660445;86;21471;-62
2022/03/12 04:19:41;;;;;;;77.20;25.88;;;;;;;-4.73;60.76;101574.52;1659798;86;21042;-62
2022/03/12 04:22:12;;;;;;;68.33;24.98;;;;;;;-4.75;60.85;101567.91;1659579;86;21007;-61
2022/03/12 04:24:43;;;;;;;64.82;23.75;;;;;;;-4.73;60.83;101572.71;1660184;86;21019;-62
2022/03/12 04:27:12;;;;;;;61.60;23.12;;;;;;;-4.71;60.83;101573.51;1660368;86;21068;-61
2022/03/12 04:29:41;;;;;;;64.32;22.52;;;;;;;-4.70;60.79;101567.22;1660235;86;21075;-63
2022/03/12 04:32:11;;;;;;;55.98;21.57;;;;;;;-4.68;60.88;101572.03;1680277;82;21058;-63
2022/03/12 04:34:40;;;;;;;63.58;22.25;;;;;;;-4.68;60.85;101567.15;1753958;82;21034;-61
2022/03/12 04:37:11;;;;;;;57.45;21.35;;;;;;;-4.68;60.88;101567.15;1753968;82;21459;-60
2022/03/12 04:39:41;;;;;;;60.55;21.80;;;;;;;-4.68;60.96;101564.48;1754002;81;21003;-62
2022/03/12 04:42:11;;;;;;;59.90;19.77;;;;;;;-4.69;61.00;101561.41;1754104;80;21055;-62
2022/03/12 04:44:42;;;;;;;54.15;19.35;;;;;;;-4.69;60.97;101564.95;1753977;80;21320;-63
2022/03/12 04:47:11;;;;;;;56.33;20.97;;;;;;;-4.67;60.91;101562.20;1753963;82;21006;-62
2022/03/12 04:49:41;;;;;;;49.67;18.95;;;;;;;-4.68;60.92;101566.68;1754130;82;21039;-63
2022/03/12 04:52:12;;;;;;;49.15;17.42;;;;;;;-4.67;60.87;101564.41;1754268;82;21422;-62
2022/03/12 04:54:42;;;;;;;56.00;18.70;;;;;;;-4.66;60.74;101564.80;1753989;82;20999;-62
2022/03/12 04:57:11;;;;;;;46.10;17.20;;;;;;;-4.63;60.65;101562.45;1753957;82;22017;-61
2022/03/12 04:59:40;;;;;;;53.42;16.42;;;;;;;-4.59;60.53;101563.58;1754370;82;21063;-63
2022/03/12 05:02:11;;;;;;;48.85;16.35;;;;;;;-4.57;60.49;101562.16;1754133;82;21117;-62
2022/03/12 05:04:40;;;;;;;41.98;15.45;;;;;;;-4.56;60.43;101558.55;1753996;82;21034;-62
2022/03/12 05:07:13;;;;;;;43.45;16.52;;;;;;;-4.54;60.36;101564.72;1753895;82;21031;-62
2022/03/12 05:09:41;;;;;;;49.55;15.60;;;;;;;-4.51;60.36;101563.23;1754087;82;21459;-62
2022/03/12 05:12:10;;;;;;;44.50;15.60;;;;;;;-4.48;60.19;101565.77;1754259;82;21031;-63
2022/03/12 05:14:46;;;;;;;45.08;14.75;;;;;;;-4.46;60.07;101558.54;1753976;82;21493;-60
2022/03/12 05:17:12;;;;;;;48.60;15.63;;;;;;;-4.42;59.92;101560.13;1753413;80;21066;-62
2022/03/12 05:19:42;;;;;;;43.02;15.98;;;;;;;-4.37;59.78;101567.45;1753928;82;21435;-63
2022/03/12 05:22:10;;;;;;;39.95;13.68;;;;;;;-4.31;59.74;101566.30;1753931;82;21039;-63
2022/03/12 05:24:39;;;;;;;40.58;14.05;;;;;;;-4.31;59.74;101566.30;1753934;82;21058;-62
2022/03/12 05:27:12;;;;;;;43.25;15.72;;;;;;;-4.27;59.58;101559.37;1753977;82;21031;-63
2022/03/12 05:29:40;;;;;;;48.98;19.92;;;;;;;-4.22;59.49;101553.33;1754126;82;21018;-62
2022/03/12 05:32:12;;;;;;;42.15;17.52;;;;;;;-4.21;59.31;101557.74;1753877;80;21031;-61
2022/03/12 05:34:41;;;;;;;42.10;16.70;;;;;;;-4.18;59.19;101551.38;1753821;82;21042;-62
2022/03/12 05:37:10;;;;;;;45.15;21.35;;;;;;;-4.17;59.10;101548.63;1753874;82;21070;-62
2022/03/12 05:39:40;;;;;;;48.78;21.25;;;;;;;-4.15;59.02;101549.41;1753831;82;21927;-62
2022/03/12 05:42:09;;;;;;;48.30;23.35;;;;;;;-4.12;58.92;101552.88;1753940;82;21062;-63
2022/03/12 05:44:39;;;;;;;47.98;22.40;;;;;;;-4.10;58.69;101551.86;1754110;82;21030;-63
2022/03/12 05:47:09;;;;;;;57.20;22.87;;;;;;;-4.07;58.77;101545.48;1753886;82;21066;-63
2022/03/12 05:49:38;;;;;;;47.93;19.90;;;;;;;-4.02;58.69;101545.66;1753856;82;21039;-63
2022/03/12 05:52:09;;;;;;;43.40;17.75;;;;;;;-3.97;58.57;101540.94;1753989;82;21058;-62
2022/03/12 05:54:39;;;;;;;49.70;16.97;;;;;;;-3.93;58.39;101536.30;1753959;82;21090;-62
2022/03/12 05:57:08;;;;;;;41.18;16.77;;;;;;;-3.90;58.28;101542.39;1753844;80;21075;-63
2022/03/12 05:59:36;;;;;;;41.53;17.32;;;;;;;-3.85;58.20;101544.36;1753849;82;21095;-61
2022/03/12 06:02:05;;;;;;;39.08;17.27;;;;;;;-3.77;58.06;101539.09;1754160;82;21003;-64
2022/03/12 06:04:36;;;;;;;41.02;16.57;;;;;;;-3.73;57.90;101536.66;1754245;82;21039;-64
2022/03/12 06:07:05;;;;;;;34.48;14.93;;;;;;;-3.71;57.86;101534.29;1753947;82;21026;-62
2022/03/12 06:09:35;;;;;;;41.83;15.38;;;;;;;-3.71;57.54;101524.91;1754080;80;21435;-61
2022/03/12 06:12:07;;;;;;;36.50;13.38;;;;;;;-3.65;57.79;101534.44;1753939;82;21038;-63
2022/03/12 06:14:38;;;;;;;37.93;12.53;;;;;;;-3.60;57.71;101531.05;1754158;82;21498;-63
2022/03/12 06:17:07;;;;;;;31.45;11.68;;;;;;;-3.58;57.62;101531.37;1754183;80;21511;-63
2022/03/12 06:19:37;;;;;;;30.48;11.33;;;;;;;-3.52;57.49;101528.84;1754017;82;21199;-63
2022/03/12 06:22:07;;;;;;;30.80;10.63;;;;;;;-3.44;57.35;101535.14;1753920;82;21944;-62
2022/03/12 06:24:36;;;;;;;36.45;11.95;;;;;;;-3.38;57.15;101532.14;1753903;82;21122;-61
2022/03/12 06:27:06;;;;;;;31.10;9.90;;;;;;;-3.31;56.76;101513.44;1753918;80;21070;-63
2022/03/12 06:29:37;;;;;;;30.95;10.82;;;;;;;-3.31;56.76;101513.44;1753974;80;21024;-62
2022/03/12 06:32:07;;;;;;;28.15;10.05;;;;;;;-3.27;56.58;101515.88;1754213;82;21031;-64
2022/03/12 06:34:36;;;;;;;24.15;9.08;;;;;;;-3.20;56.47;101513.77;1754003;82;21568;-61
2022/03/12 06:37:05;;;;;;;21.73;8.65;;;;;;;-3.17;56.12;101513.60;1754030;82;21066;-62
2022/03/12 06:39:35;;;;;;;23.05;8.40;;;;;;;-3.08;55.97;101515.78;1753920;80;21082;-62
2022/03/12 06:42:05;;;;;;;21.65;8.35;;;;;;;-3.01;55.63;101506.45;1753851;82;21094;-63
2022/03/12 06:44:37;;;;;;;26.75;8.25;;;;;;;-2.93;55.19;101510.92;1753998;82;21027;-62
2022/03/12 06:47:08;;;;;;;20.20;7.78;;;;;;;-2.85;54.81;101507.82;1754063;82;21027;-62
2022/03/12 06:49:38;;;;;;;28.95;7.95;;;;;;;-2.76;53.70;101505.97;1754199;80;21058;-64
2022/03/12 06:52:09;;;;;;;23.57;7.92;;;;;;;-2.67;53.35;101504.59;1754322;82;21039;-63
2022/03/12 06:54:38;;;;;;;24.60;8.43;;;;;;;-2.56;52.60;101498.17;1755024;82;21085;-63
2022/03/12 06:57:07;;;;;;;24.15;8.75;;;;;;;-2.43;51.79;101503.70;1753989;82;21059;-62
2022/03/12 06:59:36;;;;;;;34.80;10.35;;;;;;;-2.34;51.23;101497.33;1740445;82;21083;-61
2022/03/12 07:02:05;;;;;;;23.15;8.80;;;;;;;-2.24;50.97;101491.81;1739935;82;21043;-64
2022/03/12 07:04:34;;;;;;;21.35;8.38;;;;;;;-2.14;50.46;101494.83;1738374;82;21468;-62
2022/03/12 07:07:04;;;;;;;27.05;8.23;;;;;;;-2.04;49.89;101494.67;1738349;82;21059;-62
2022/03/12 07:09:34;;;;;;;30.05;9.23;;;;;;;-1.95;49.85;101489.27;1738282;82;21011;-65
2022/03/12 07:12:06;;;;;;;28.10;9.65;;;;;;;-1.88;49.89;101483.92;1738154;82;21059;-63
2022/03/12 07:14:36;;;;;;;26.17;9.20;;;;;;;-1.81;49.94;101482.59;1738476;81;21036;-62
2022/03/12 07:17:07;;;;;;;19.90;7.90;;;;;;;-1.75;49.81;101474.65;1738250;82;21103;-62
2022/03/12 07:19:36;;;;;;;18.70;6.70;;;;;;;-1.70;49.30;101477.44;1738200;82;21102;-61
2022/03/12 07:22:07;;;;;;;16.93;6.85;;;;;;;-1.64;49.04;101475.73;1738135;81;21063;-61
2022/03/12 07:24:37;;;;;;;18.37;5.97;;;;;;;-1.58;49.22;101470.45;1738201;82;21007;-62
2022/03/12 07:27:07;;;;;;;19.90;5.58;;;;;;;-1.52;48.64;101470.56;1738163;82;21447;-62
2022/03/12 07:29:36;;;;;;;17.48;5.20;;;;;;;-1.46;48.33;101467.02;1738026;82;21027;-62
2022/03/12 07:32:08;;;;;;;14.60;4.97;;;;;;;-1.40;48.25;101461.73;1738377;82;21027;-62
2022/03/12 07:34:36;;;;;;;14.68;4.65;;;;;;;-1.34;47.73;101455.98;1738300;82;21060;-63
2022/03/12 07:37:08;;;;;;;11.85;4.40;;;;;;;-1.27;47.32;101454.67;1738180;82;21075;-62
2022/03/12 07:39:38;;;;;;;14.30;4.20;;;;;;;-1.20;46.82;101447.95;1737963;82;21015;-63
2022/03/12 07:42:07;;;;;;;9.93;3.65;;;;;;;-1.13;46.49;101433.16;1738244;82;21071;-62
2022/03/12 07:44:39;;;;;;;9.20;3.72;;;;;;;-1.05;45.64;101432.66;1737746;81;21107;-62
2022/03/12 07:47:09;;;;;;;14.68;4.12;;;;;;;-0.98;45.65;101436.69;1738162;82;21370;-63
2022/03/12 07:49:38;;;;;;;10.38;3.67;;;;;;;-0.90;45.82;101436.19;1738229;82;21467;-62
2022/03/12 07:52:08;;;;;;;8.45;3.45;;;;;;;-0.86;45.46;101429.17;1738259;82;21079;-62
2022/03/12 07:54:38;;;;;;;19.40;4.72;;;;;;;-0.82;45.46;101424.45;1738054;82;21143;-62
2022/03/12 07:57:09;;;;;;;15.75;4.60;;;;;;;-0.76;45.44;101422.70;1737900;82;21090;-62
2022/03/12 07:59:39;;;;;;;15.45;5.60;;;;;;;-0.70;45.47;101416.44;1737886;82;21059;-63
2022/03/12 08:02:08;;;;;;;12.78;5.25;;;;;;;-0.60;45.46;101419.91;1738024;82;21015;-62
2022/03/12 08:04:38;;;;;;;13.75;4.28;;;;;;;-0.51;45.67;101415.26;1651368;87;21075;-61
2022/03/12 08:07:08;;;;;;;16.77;4.92;;;;;;;-0.29;45.09;101413.34;1651474;86;21151;-62
2022/03/12 08:09:39;;;;;;;10.08;3.75;;;;;;;0.12;44.57;101410.06;1651126;87;21032;-62
2022/03/12 08:12:09;;;;;;;10.45;3.90;;;;;;;0.61;43.62;101400.73;1651430;86;21075;-62
2022/03/12 08:14:38;;;;;;;10.23;3.55;;;;;;;1.16;42.65;101398.12;1651449;86;21154;-61
2022/03/12 08:17:07;;;;;;;7.95;3.30;;;;;;;1.68;41.26;101391.55;1651330;87;21515;-63
2022/03/12 08:19:41;;;;;;;9.65;3.67;;;;;;;2.16;41.33;101392.35;1574195;90;21062;-62
2022/03/12 08:22:15;;;;;;;8.83;3.90;;;;;;;2.64;39.93;101394.91;1574526;91;21467;-63
2022/03/12 08:24:44;;;;;;;7.55;3.35;;;;;;;3.15;38.01;101386.26;1574531;91;21073;-64
2022/03/12 08:27:14;;;;;;;7.28;3.00;;;;;;;3.53;37.18;101383.61;1574379;90;21067;-63
2022/03/12 08:29:44;;;;;;;8.90;3.70;;;;;;;3.81;36.61;101385.71;1631571;86;21050;-64
2022/03/12 08:32:13;;;;;;;9.78;3.83;;;;;;;4.12;36.56;101381.27;1656638;86;21502;-62
2022/03/12 08:34:42;;;;;;;6.28;3.20;;;;;;;4.44;36.04;101383.91;1656787;86;21126;-62
2022/03/12 08:37:12;;;;;;;11.22;3.40;;;;;;;4.67;35.62;101378.70;1676387;82;21081;-63
2022/03/12 08:39:41;;;;;;;8.20;3.77;;;;;;;4.82;34.26;101376.48;1738228;82;20999;-62
2022/03/12 08:42:10;;;;;;;6.60;3.52;;;;;;;4.89;34.38;101364.07;1738469;82;21078;-62
2022/03/12 08:44:40;;;;;;;10.35;3.90;;;;;;;5.03;34.13;101367.76;1738100;82;21063;-61
2022/03/12 08:47:09;;;;;;;11.57;5.05;;;;;;;5.17;33.71;101366.52;1738103;82;21032;-63
2022/03/12 08:49:40;;;;;;;9.98;4.60;;;;;;;5.24;33.58;101362.27;1738076;82;21465;-62
2022/03/12 08:52:09;;;;;;;12.00;4.60;;;;;;;5.29;32.77;101361.35;1738184;82;21100;-63
2022/03/12 08:54:38;;;;;;;11.57;4.33;;;;;;;5.31;32.42;101360.71;1738427;82;21078;-62
2022/03/12 08:57:08;;;;;;;11.73;3.98;;;;;;;5.26;31.36;101357.55;1738020;81;21134;-63
2022/03/12 08:59:37;;;;;;;8.43;4.20;;;;;;;5.10;30.81;101358.56;1753223;82;21066;-62
2022/03/12 09:02:06;;;;;;;9.23;4.05;;;;;;;4.76;31.53;101356.16;1754161;81;21034;-61
2022/03/12 09:04:35;;;;;;;8.55;3.65;;;;;;;4.53;32.63;101348.31;1754331;82;21062;-62
2022/03/12 09:07:05;;;;;;;9.98;4.12;;;;;;;4.36;32.32;101339.80;1753939;82;21058;-62
2022/03/12 09:09:35;;;;;;;15.35;4.78;;;;;;;4.13;32.45;101343.17;1754153;80;21536;-62
2022/03/12 09:12:06;;;;;;;14.05;4.22;;;;;;;3.99;32.38;101340.80;1754028;81;21059;-62
2022/03/12 09:14:36;;;;;;;13.03;4.15;;;;;;;3.90;32.77;101337.52;1754040;81;21501;-62
2022/03/12 09:17:05;;;;;;;13.83;4.78;;;;;;;3.85;32.50;101349.72;1754252;82;21033;-61
2022/03/12 09:19:36;;;;;;;10.03;4.50;;;;;;;3.80;32.59;101341.98;1754212;80;21066;-61
2022/03/12 09:22:06;;;;;;;11.88;5.42;;;;;;;3.73;32.59;101328.58;1753955;80;21015;-63
2022/03/12 09:24:36;;;;;;;11.53;5.05;;;;;;;3.60;32.58;101334.69;1754055;82;21093;-63
2022/03/12 09:27:05;;;;;;;10.38;5.37;;;;;;;3.49;32.69;101333.74;1753956;82;21035;-62
2022/03/12 09:29:35;;;;;;;10.63;5.05;;;;;;;3.44;33.18;101338.69;1754065;82;21070;-64
2022/03/12 09:32:08;;;;;;;11.50;5.20;;;;;;;3.44;33.00;101331.05;1754400;82;21538;-62
2022/03/12 09:34:38;;;;;;;10.10;4.33;;;;;;;3.42;33.13;101319.48;1753950;82;21513;-63
2022/03/12 09:37:07;;;;;;;11.00;4.55;;;;;;;3.43;33.06;101326.13;1753960;82;21022;-62
2022/03/12 09:39:38;;;;;;;10.72;3.90;;;;;;;3.39;32.19;101321.10;1753875;82;21027;-63
2022/03/12 09:42:09;;;;;;;10.90;4.17;;;;;;;3.36;31.81;101318.65;1753917;82;21062;-62
2022/03/12 09:44:37;;;;;;;11.03;3.70;;;;;;;3.31;31.37;101325.80;1753991;82;21093;-63
2022/03/12 09:47:07;;;;;;;19.75;4.35;;;;;;;3.31;31.75;101313.62;1753906;82;21003;-61
2022/03/12 09:49:38;;;;;;;12.85;3.95;;;;;;;3.33;31.83;101306.22;1753847;82;21022;-62
2022/03/12 09:52:09;;;;;;;9.60;3.30;;;;;;;3.34;31.20;101301.66;1753959;82;21078;-62
2022/03/12 09:54:38;;;;;;;6.47;3.22;;;;;;;3.33;31.00;101297.23;1753845;82;21070;-62
2022/03/12 09:57:07;;;;;;;7.97;3.75;;;;;;;3.32;31.08;101300.94;1753881;82;21110;-64
2022/03/12 09:59:37;;;;;;;9.53;3.62;;;;;;;3.28;30.54;101303.04;1753653;82;21074;-62
2022/03/12 10:02:07;;;;;;;6.08;3.00;;;;;;;3.19;30.87;101309.20;1754145;82;21086;-62
2022/03/12 10:04:36;;;;;;;5.95;2.70;;;;;;;3.14;31.29;101297.89;1754204;82;21059;-62
2022/03/12 10:07:09;;;;;;;13.93;3.30;;;;;;;3.13;31.76;101295.67;1754222;82;21042;-62
2022/03/12 10:09:39;;;;;;;6.40;3.00;;;;;;;3.17;31.96;101302.55;1753909;80;21333;-62
2022/03/12 10:12:10;;;;;;;8.98;3.42;;;;;;;3.16;32.23;101298.13;1754337;82;21058;-61
2022/03/12 10:14:39;;;;;;;12.15;3.67;;;;;;;3.14;32.43;101295.18;1754247;82;21058;-63
2022/03/12 10:17:07;;;;;;;8.78;3.58;;;;;;;3.12;32.67;101293.09;1754017;82;21277;-61
2022/03/12 10:19:38;;;;;;;11.18;3.75;;;;;;;3.18;32.93;101280.39;1754076;82;21055;-62
2022/03/12 10:22:09;;;;;;;7.53;3.62;;;;;;;3.21;32.70;101278.78;1754227;82;21007;-62
2022/03/12 10:24:38;;;;;;;6.35;2.95;;;;;;;3.25;32.75;101270.80;1754230;82;21548;-63
2022/03/12 10:27:07;;;;;;;7.03;3.02;;;;;;;3.27;32.58;101270.17;1754231;82;21490;-61
2022/03/12 10:29:35;;;;;;;8.38;3.33;;;;;;;3.25;32.43;101252.30;1753935;82;21179;-64
2022/03/12 10:32:25;;;;;;;7.58;2.80;;;;;;;3.24;32.74;101252.80;1754241;82;21078;-63
2022/03/12 10:34:55;;;;;;;;;;;;;;;3.27;32.88;101254.42;1756607;82;21038;-62
2022/03/12 10:37:26;;;;;;;6.58;2.90;;;;;;;3.32;33.10;101248.98;1754007;80;20184;-63
2022/03/12 10:40:09;;;;;;;8.70;4.12;;;;;;;3.34;33.09;101242.08;1754250;82;21094;-62
2022/03/12 10:42:58;;;;;;;9.45;3.58;;;;;;;3.36;33.22;101247.73;1753989;82;21003;-63
2022/03/12 10:45:43;;;;;;;11.83;4.70;;;;;;;3.37;33.03;101225.06;1754197;82;21035;-62
2022/03/12 10:48:14;;;;;;;9.33;4.97;;;;;;;3.40;33.31;101228.87;1752606;82;21054;-62
2022/03/12 10:50:44;;;;;;;12.43;5.12;;;;;;;3.45;33.54;101223.91;1753967;82;21536;-63
2022/03/12 10:53:13;;;;;;;15.25;6.05;;;;;;;3.50;33.65;101220.31;1754058;82;21062;-63
2022/03/12 10:55:45;;;;;;;16.05;6.05;;;;;;;3.57;33.82;101217.94;1754104;82;21039;-62
2022/03/12 10:58:26;;;;;;;17.35;6.25;;;;;;;3.66;33.88;101214.42;1752449;82;21055;-63
2022/03/12 11:01:00;;;;;;;13.13;5.28;;;;;;;3.74;33.79;101208.33;1740435;81;21060;-63
2022/03/12 11:03:35;;;;;;;10.10;5.20;;;;;;;3.74;33.73;101203.77;1740210;81;21472;-62
2022/03/12 11:06:05;;;;;;;10.68;5.12;;;;;;;3.78;33.94;101196.23;1740187;82;21047;-62
2022/03/12 11:08:35;;;;;;;11.75;5.33;;;;;;;3.82;33.86;101191.77;1740200;82;21531;-63
2022/03/12 11:11:12;;;;;;;10.30;5.08;;;;;;;3.87;34.05;101194.06;1740259;82;21055;-62
2022/03/12 11:13:52;;;;;;;8.65;4.30;;;;;;;3.89;33.94;101193.44;1740491;82;21047;-62
2022/03/12 11:16:35;;;;;;;8.83;4.17;;;;;;;3.90;34.03;101184.80;1740277;82;21004;-61
2022/03/12 11:19:14;;;;;;;9.70;4.53;;;;;;;3.92;33.98;101190.98;1740199;81;21077;-63
2022/03/12 11:21:51;;;;;;;10.30;3.92;;;;;;;3.98;33.97;101184.52;1740422;81;21012;-62
2022/03/12 11:24:28;;;;;;;8.65;4.35;;;;;;;4.01;34.04;101186.96;1740181;81;21066;-62
2022/03/12 11:27:03;;;;;;;10.45;4.78;;;;;;;4.05;34.16;101185.69;1686334;84;21078;-64
2022/03/12 11:29:34;;;;;;;8.93;4.60;;;;;;;4.09;34.46;101187.63;1686570;85;21086;-62
2022/03/12 11:32:09;;;;;;;8.98;4.25;;;;;;;4.12;34.41;101184.15;1686410;85;21514;-61
2022/03/12 11:34:42;;;;;;;7.33;3.58;;;;;;;4.14;34.34;101182.16;1686571;85;21046;-61
2022/03/12 11:37:17;;;;;;;10.60;3.60;;;;;;;4.17;34.46;101180.17;1686393;85;21043;-62
2022/03/12 11:39:53;;;;;;;7.67;4.27;;;;;;;4.21;34.61;101173.47;1652998;87;21095;-63